Time;durP1;ratioP1;P1;durP2;ratioP2;P2;SDS_P1;SDS_P2;PMS_P1;PMS_P2;Temp;Humidity;BMP_temperature;BMP_pressure;BME280_temperature;BME280_humidity;BME280_pressure;Samples;Min_cycle;Max_cycle;Signal;HPM_P1;HPM_P2
2021/10/28 00:14:30;;;;;;;5.28;3.42;;;13.50;99.90;;;;;;5015579;28;20209;-85
2021/10/28 00:16:57;;;;;;;3.97;3.37;;;13.40;99.90;;;;;;5014788;28;20170;-86
2021/10/28 00:19:22;;;;;;;3.88;3.10;;;13.40;99.90;;;;;;5014021;28;20379;-85
2021/10/28 00:21:49;;;;;;;4.03;2.90;;;13.40;99.90;;;;;;5015990;28;20206;-86
2021/10/28 00:24:15;;;;;;;4.20;3.08;;;13.40;99.90;;;;;;5015723;28;20208;-85
2021/10/28 00:26:44;;;;;;;3.00;2.70;;;13.30;99.90;;;;;;5014247;28;20197;-85
2021/10/28 00:29:16;;;;;;;4.47;3.33;;;13.30;99.90;;;;;;5016083;28;20162;-86
2021/10/28 00:31:44;;;;;;;4.53;3.10;;;13.20;99.90;;;;;;4999072;28;20174;-85
2021/10/28 00:34:12;;;;;;;4.80;3.53;;;13.20;99.90;;;;;;5014202;28;20285;-85
2021/10/28 00:36:38;;;;;;;4.13;3.00;;;13.20;99.90;;;;;;5015655;28;20174;-85
2021/10/28 00:39:07;;;;;;;3.92;2.78;;;13.20;99.90;;;;;;5014270;28;20272;-86
2021/10/28 00:41:33;;;;;;;4.45;3.53;;;13.10;99.90;;;;;;4998163;28;20202;-86
2021/10/28 00:44:01;;;;;;;5.20;3.73;;;13.10;99.90;;;;;;5015777;28;20201;-86
2021/10/28 00:46:30;;;;;;;3.72;3.00;;;13.10;99.90;;;;;;5019214;28;20166;-86
2021/10/28 00:48:57;;;;;;;4.85;3.53;;;13.00;99.90;;;;;;5015230;28;20240;-85
2021/10/28 00:51:25;;;;;;;7.75;3.35;;;13.00;99.90;;;;;;5016003;28;20553;-85
2021/10/28 00:53:52;;;;;;;3.88;3.42;;;13.00;99.90;;;;;;5013951;28;20200;-85
2021/10/28 00:56:20;;;;;;;3.80;3.15;;;13.00;99.90;;;;;;5014545;28;20197;-85
2021/10/28 00:58:46;;;;;;;3.88;3.05;;;12.90;99.90;;;;;;5015215;28;20178;-84
2021/10/28 01:01:12;;;;;;;4.30;3.70;;;12.90;99.90;;;;;;5015538;28;20190;-84
2021/10/28 01:03:39;;;;;;;4.83;3.17;;;12.90;99.90;;;;;;5015179;28;20202;-85
2021/10/28 01:06:06;;;;;;;3.50;3.20;;;12.90;99.90;;;;;;5016134;28;20170;-85
2021/10/28 01:08:35;;;;;;;8.30;3.78;;;12.80;99.90;;;;;;5017290;28;20171;-85
2021/10/28 01:11:00;;;;;;;6.88;3.78;;;12.80;99.90;;;;;;5014763;28;20224;-84
2021/10/28 01:13:26;;;;;;;5.43;4.10;;;12.80;99.90;;;;;;5015607;28;20175;-85
2021/10/28 01:15:56;;;;;;;5.50;3.63;;;12.70;99.90;;;;;;4998528;28;20189;-85
2021/10/28 01:18:23;;;;;;;6.00;4.25;;;12.70;99.90;;;;;;5016636;28;20893;-85
2021/10/28 01:20:51;;;;;;;6.20;4.38;;;12.80;99.90;;;;;;5015915;28;20694;-85
2021/10/28 01:23:21;;;;;;;4.28;3.35;;;12.80;99.90;;;;;;5015171;28;20729;-87
2021/10/28 01:25:58;;;;;;;6.03;3.80;;;12.70;99.90;;;;;;5015538;28;20197;-84
2021/10/28 01:28:26;;;;;;;5.50;4.00;;;12.70;99.90;;;;;;5013576;28;20221;-84
2021/10/28 01:30:55;;;;;;;7.63;4.53;;;12.70;99.90;;;;;;5015567;28;20197;-85
2021/10/28 01:33:23;;;;;;;6.57;4.15;;;12.60;99.90;;;;;;5013976;28;20202;-86
2021/10/28 01:35:49;;;;;;;6.57;5.05;;;12.60;99.90;;;;;;5014800;28;20170;-84
2021/10/28 01:38:16;;;;;;;5.90;3.83;;;12.50;99.90;;;;;;5013499;28;20180;-84
2021/10/28 01:40:43;;;;;;;6.38;4.57;;;12.50;99.90;;;;;;5015103;28;20194;-86
2021/10/28 01:43:09;;;;;;;6.97;4.82;;;12.50;99.90;;;;;;5015187;28;20170;-85
2021/10/28 01:45:35;;;;;;;6.07;4.47;;;12.50;99.90;;;;;;5015262;28;20680;-85
2021/10/28 01:48:01;;;;;;;6.10;4.32;;;12.40;99.90;;;;;;5016117;28;20169;-84
2021/10/28 01:50:31;;;;;;;6.88;4.85;;;12.40;99.90;;;;;;5014700;28;20174;-85
2021/10/28 01:52:57;;;;;;;5.28;4.00;;;12.40;99.90;;;;;;5014774;28;20189;-84
2021/10/28 01:55:23;;;;;;;6.28;4.25;;;12.40;99.90;;;;;;5017356;28;20202;-84
2021/10/28 01:57:48;;;;;;;8.03;5.67;;;12.30;99.90;;;;;;5016367;28;20174;-84
2021/10/28 02:00:17;;;;;;;5.67;4.23;;;12.30;99.90;;;;;;5017104;28;20173;-85
2021/10/28 02:02:45;;;;;;;7.53;4.40;;;12.20;99.90;;;;;;5034016;28;20170;-85
2021/10/28 02:05:14;;;;;;;6.38;4.35;;;12.20;99.90;;;;;;5017302;28;20284;-85
2021/10/28 02:07:39;;;;;;;7.88;5.03;;;12.20;99.90;;;;;;5017106;28;20253;-83
2021/10/28 02:10:09;;;;;;;5.90;3.80;;;12.20;99.90;;;;;;5018281;28;20220;-85
2021/10/28 02:12:35;;;;;;;7.15;4.95;;;12.20;99.90;;;;;;5019903;28;20634;-84
2021/10/28 02:15:06;;;;;;;12.35;4.65;;;12.10;99.90;;;;;;5017564;28;20194;-85
2021/10/28 02:17:32;;;;;;;5.68;4.15;;;12.00;99.90;;;;;;5016952;28;20177;-85
2021/10/28 02:19:57;;;;;;;7.03;4.55;;;12.00;99.90;;;;;;5016404;28;20240;-84
2021/10/28 02:22:23;;;;;;;7.70;5.00;;;12.00;99.90;;;;;;5015924;28;20202;-85
2021/10/28 02:24:49;;;;;;;6.57;4.30;;;12.10;99.90;;;;;;5016228;28;20190;-84
2021/10/28 02:27:14;;;;;;;8.03;4.80;;;12.10;99.90;;;;;;5016279;28;20166;-85
2021/10/28 02:29:40;;;;;;;6.97;4.90;;;12.10;99.90;;;;;;5016090;28;20170;-85
2021/10/28 02:32:09;;;;;;;8.23;4.50;;;12.00;99.90;;;;;;5017168;28;20252;-85
2021/10/28 02:34:38;;;;;;;7.00;4.88;;;12.00;99.90;;;;;;5016439;28;20182;-85
2021/10/28 02:37:05;;;;;;;8.35;5.40;;;11.90;99.90;;;;;;5016975;28;20669;-84
2021/10/28 02:39:34;;;;;;;6.75;4.45;;;11.90;99.90;;;;;;5015594;28;20280;-84
2021/10/28 02:41:59;;;;;;;10.02;4.90;;;11.90;99.90;;;;;;5015506;28;20206;-83
2021/10/28 02:44:25;;;;;;;5.40;4.30;;;11.90;99.90;;;;;;5015266;28;20197;-84
2021/10/28 02:46:51;;;;;;;5.10;3.92;;;11.90;99.90;;;;;;5016517;28;20265;-84
2021/10/28 02:49:20;;;;;;;4.57;3.63;;;11.90;99.90;;;;;;5017112;28;20206;-85
2021/10/28 02:51:49;;;;;;;7.05;4.70;;;11.80;99.90;;;;;;5017859;28;20185;-85
2021/10/28 02:54:20;;;;;;;8.02;5.22;;;11.80;99.90;;;;;;5015978;28;20668;-85
2021/10/28 02:56:46;;;;;;;9.80;4.93;;;11.70;99.90;;;;;;5018907;28;20193;-85
2021/10/28 02:59:12;;;;;;;6.40;4.90;;;11.80;99.90;;;;;;5025626;28;20187;-86
2021/10/28 03:01:46;;;;;;;7.47;4.72;;;11.80;99.90;;;;;;5004987;28;20214;-85
2021/10/28 03:04:13;;;;;;;6.57;5.00;;;11.80;99.90;;;;;;5017141;28;20577;-86
2021/10/28 03:06:40;;;;;;;5.30;4.18;;;11.80;99.90;;;;;;5020943;28;20181;-85
2021/10/28 03:09:09;;;;;;;7.25;5.03;;;11.80;99.90;;;;;;5018930;28;20166;-85
2021/10/28 03:11:35;;;;;;;8.23;4.45;;;11.70;99.90;;;;;;4999930;28;20558;-84
2021/10/28 03:14:01;;;;;;;5.95;4.00;;;11.70;99.90;;;;;;5015305;28;20198;-85
2021/10/28 03:27:10;;;;;;;9.32;3.90;;;11.60;99.90;;;;;;5016464;28;20236;-85
2021/10/28 03:29:36;;;;;;;7.53;4.70;;;11.60;99.90;;;;;;5016768;28;20171;-84
2021/10/28 03:32:01;;;;;;;8.90;4.90;;;11.60;99.90;;;;;;4983332;28;20212;-85
2021/10/28 03:34:27;;;;;;;10.00;5.43;;;11.50;99.90;;;;;;5015889;28;20208;-84
2021/10/28 03:37:03;;;;;;;7.83;5.20;;;11.40;99.90;;;;;;5017244;28;20186;-84
2021/10/28 04:30:22;;;;;;;11.45;5.45;;;11.30;99.90;;;;;;5015398;28;20522;-86
2021/10/28 04:32:52;;;;;;;9.05;5.57;;;11.30;99.90;;;;;;5016832;28;20170;-87
2021/10/28 04:35:18;;;;;;;10.80;5.85;;;11.20;99.90;;;;;;5014259;28;20194;-86
2021/10/28 04:37:45;;;;;;;12.73;6.30;;;11.30;99.90;;;;;;5014116;28;20197;-86
2021/10/28 04:40:12;;;;;;;7.78;4.80;;;11.30;99.90;;;;;;5013742;28;20427;-85
2021/10/28 04:42:41;;;;;;;12.07;6.55;;;11.20;99.90;;;;;;5014804;28;20162;-85
2021/10/28 04:45:07;;;;;;;17.05;8.00;;;11.20;99.90;;;;;;4998834;28;20198;-85
2021/10/28 04:47:32;;;;;;;9.27;6.40;;;11.20;99.90;;;;;;5014505;28;20189;-85
2021/10/28 04:49:58;;;;;;;10.13;6.23;;;11.20;99.90;;;;;;5008877;28;20421;-88
2021/10/28 04:52:27;;;;;;;13.07;6.13;;;11.20;99.90;;;;;;5016290;28;20162;-86
2021/10/28 04:54:57;;;;;;;8.38;5.82;;;11.20;99.90;;;;;;4997692;28;20200;-86
2021/10/28 04:57:30;;;;;;;11.07;6.38;;;11.20;99.90;;;;;;4997191;28;20184;-87
2021/10/28 04:59:56;;;;;;;12.55;6.65;;;11.20;99.90;;;;;;4982137;28;20178;-86
2021/10/28 05:02:24;;;;;;;10.67;5.63;;;11.10;99.90;;;;;;4998088;28;20201;-86
2021/10/28 05:04:49;;;;;;;11.57;6.45;;;11.10;99.90;;;;;;5016461;28;20692;-86
2021/10/28 05:07:15;;;;;;;10.23;6.50;;;11.10;99.90;;;;;;5019096;28;20174;-88
2021/10/28 05:09:41;;;;;;;9.27;5.67;;;11.00;99.90;;;;;;5001187;28;20200;-84
2021/10/28 05:12:15;;;;;;;8.00;6.10;;;11.10;99.90;;;;;;4999599;28;20260;-89
2021/10/28 05:14:44;;;;;;;10.73;5.72;;;11.00;99.90;;;;;;4997019;28;20190;-87
2021/10/28 05:17:09;;;;;;;9.15;6.10;;;11.00;99.90;;;;;;4996549;28;20756;-88
2021/10/28 05:19:38;;;;;;;13.70;7.00;;;11.00;99.90;;;;;;5013493;28;20209;-87
2021/10/28 05:22:08;;;;;;;12.07;6.20;;;10.90;99.90;;;;;;5014503;28;20264;-86
2021/10/28 05:24:35;;;;;;;17.77;7.18;;;11.00;99.90;;;;;;5000469;28;20194;-85
2021/10/28 05:27:00;;;;;;;8.95;6.18;;;10.90;99.90;;;;;;4993165;28;20311;-86
2021/10/28 05:29:27;;;;;;;7.03;4.90;;;10.90;99.90;;;;;;5026037;28;20173;-87
2021/10/28 05:31:53;;;;;;;15.98;6.22;;;10.80;99.90;;;;;;5006571;28;20432;-86
2021/10/28 05:34:22;;;;;;;16.70;7.73;;;10.90;99.90;;;;;;4991286;28;20654;-87
2021/10/28 05:36:49;;;;;;;10.40;6.47;;;10.80;99.90;;;;;;5003681;28;20188;-86
2021/10/28 05:39:14;;;;;;;9.30;5.70;;;10.80;99.90;;;;;;5001435;28;20232;-86
2021/10/28 05:41:40;;;;;;;11.77;7.23;;;10.80;99.90;;;;;;5010947;28;20202;-85
2021/10/28 05:44:06;;;;;;;11.83;6.37;;;10.80;99.90;;;;;;5025154;28;20712;-86
2021/10/28 05:46:33;;;;;;;9.83;6.47;;;10.80;99.90;;;;;;5004156;28;20181;-86
2021/10/28 05:48:59;;;;;;;12.45;7.28;;;10.80;99.90;;;;;;5003623;28;20181;-87
2021/10/28 05:51:28;;;;;;;11.40;5.30;;;10.80;99.90;;;;;;5022961;28;20545;-87
2021/10/28 05:53:53;;;;;;;11.10;6.68;;;10.80;99.90;;;;;;5017938;28;20280;-89
2021/10/28 05:56:22;;;;;;;10.70;6.10;;;10.80;99.90;;;;;;4999567;28;20201;-88
2021/10/28 05:58:48;;;;;;;12.68;6.18;;;10.80;99.90;;;;;;4983904;28;20284;-87
2021/10/28 06:01:14;;;;;;;10.10;6.70;;;10.90;99.90;;;;;;5000646;28;20256;-89
2021/10/28 06:03:47;;;;;;;12.10;6.27;;;10.90;99.90;;;;;;4999527;28;20194;-90
2021/10/28 06:06:12;;;;;;;15.60;8.00;;;10.80;99.90;;;;;;5022572;28;20162;-87
2021/10/28 06:08:38;;;;;;;10.80;6.37;;;10.90;99.90;;;;;;5002385;28;20659;-84
2021/10/28 06:11:04;;;;;;;9.03;5.87;;;11.00;99.90;;;;;;5017874;28;20193;-86
2021/10/28 06:13:29;;;;;;;11.57;6.90;;;11.00;99.90;;;;;;4989358;28;20229;-87
2021/10/28 06:15:56;;;;;;;10.60;6.50;;;11.00;99.90;;;;;;5013957;28;20804;-86
2021/10/28 06:20:54;;;;;;;9.40;5.97;;;10.90;99.90;;;;;;5017603;28;20194;-86
2021/10/28 06:23:20;;;;;;;8.65;6.60;;;10.90;99.90;;;;;;5016766;28;20174;-86
2021/10/28 06:25:45;;;;;;;13.03;7.43;;;10.90;99.90;;;;;;4999206;28;20208;-86
2021/10/28 06:28:11;;;;;;;13.00;7.50;;;11.00;99.90;;;;;;5018153;28;20178;-86
2021/10/28 06:30:36;;;;;;;14.43;7.27;;;10.90;99.90;;;;;;5002497;28;20253;-85
2021/10/28 06:33:08;;;;;;;14.70;8.00;;;10.80;99.90;;;;;;4989278;28;20277;-85
2021/10/28 06:35:37;;;;;;;15.55;7.30;;;10.90;99.90;;;;;;5011658;28;20202;-85
2021/10/28 06:38:05;;;;;;;15.98;8.20;;;10.90;99.90;;;;;;4972248;28;20187;-86
2021/10/28 06:40:31;;;;;;;11.25;6.60;;;10.90;99.90;;;;;;5008806;28;20570;-86
2021/10/28 06:43:04;;;;;;;15.63;7.47;;;10.90;99.90;;;;;;5003065;28;20178;-86
2021/10/28 06:45:32;;;;;;;11.35;6.70;;;10.70;99.90;;;;;;4985392;28;20257;-86
2021/10/28 06:47:58;;;;;;;13.35;8.15;;;10.60;99.90;;;;;;5001555;28;20311;-86
2021/10/28 06:50:38;;;;;;;10.23;6.70;;;10.60;99.90;;;;;;5000585;28;20858;-85
2021/10/28 07:03:24;;;;;;;11.35;6.30;;;10.50;99.90;;;;;;4998492;28;20186;-86
2021/10/28 07:05:50;;;;;;;10.98;7.57;;;10.60;99.90;;;;;;4996752;28;20313;-86
2021/10/28 07:08:16;;;;;;;11.33;7.10;;;10.50;99.90;;;;;;4999167;28;20202;-86
2021/10/28 07:10:43;;;;;;;12.15;6.03;;;10.60;99.90;;;;;;4999157;28;20421;-86
2021/10/28 07:13:16;;;;;;;14.43;7.75;;;10.50;99.90;;;;;;5000201;28;20194;-87
2021/10/28 07:15:46;;;;;;;13.90;7.70;;;10.60;99.90;;;;;;4982337;28;20449;-87
2021/10/28 07:21:30;;;;;;;11.75;7.07;;;10.70;99.90;;;;;;4940910;29;20247;-85
2021/10/28 07:35:05;;;;;;;10.88;7.38;;;11.10;99.90;;;;;;5017138;28;20257;-83
2021/10/28 08:18:32;;;;;;;12.20;7.15;;;11.70;99.90;;;;;;5010364;28;20185;-85
2021/10/28 08:21:12;;;;;;;11.20;6.50;;;11.70;99.90;;;;;;5001022;28;20293;-85
2021/10/28 08:23:59;;;;;;;12.95;7.43;;;11.80;99.90;;;;;;5016345;28;20189;-85
2021/10/28 08:31:52;;;;;;;11.63;6.78;;;11.90;99.90;;;;;;5003129;28;20173;-84
2021/10/28 08:34:30;;;;;;;14.10;7.68;;;12.00;99.90;;;;;;5011386;28;20569;-86
2021/10/28 08:37:06;;;;;;;11.52;6.10;;;11.90;99.90;;;;;;5010527;28;20232;-85
2021/10/28 08:39:33;;;;;;;12.75;6.65;;;12.00;99.90;;;;;;5013006;28;20174;-85
2021/10/28 08:42:02;;;;;;;8.85;5.82;;;12.10;99.90;;;;;;5016295;28;20197;-84
2021/10/28 08:44:40;;;;;;;9.98;6.10;;;12.20;99.90;;;;;;5023611;28;20201;-85
2021/10/28 08:47:10;;;;;;;11.88;5.65;;;12.30;99.90;;;;;;4996979;28;20665;-85
2021/10/28 08:49:45;;;;;;;10.18;6.80;;;12.30;99.90;;;;;;4978838;28;20210;-85
2021/10/28 08:52:34;;;;;;;9.77;5.70;;;12.30;99.90;;;;;;5013157;28;20552;-86
2021/10/28 08:55:27;;;;;;;13.20;7.13;;;12.40;99.90;;;;;;5011438;28;20190;-85
2021/10/28 09:25:25;;;;;;;10.88;6.57;;;12.80;99.90;;;;;;4944867;29;20283;-86
2021/10/28 09:30:36;;;;;;;9.15;6.72;;;12.90;99.90;;;;;;5018046;28;20534;-85
2021/10/28 09:33:36;;;;;;;10.52;6.28;;;13.00;99.90;;;;;;5000102;28;20603;-84
2021/10/28 09:43:31;;;;;;;11.70;7.03;;;13.10;99.90;;;;;;4984968;28;20171;-85
2021/10/28 09:45:16;;;;;;;9.45;6.55;;;13.20;99.90;;;;;;5035283;28;20400;-84
2021/10/28 09:47:42;;;;;;;12.07;6.60;;;13.20;99.90;;;;;;5019843;28;20197;-84
2021/10/28 09:50:15;;;;;;;13.10;7.18;;;13.30;99.90;;;;;;4999146;28;20199;-84
2021/10/28 09:52:53;;;;;;;10.07;6.30;;;13.30;99.90;;;;;;4998695;28;20170;-85
2021/10/28 09:58:25;;;;;;;15.82;6.88;;;13.40;99.90;;;;;;5017798;28;20181;-84
2021/10/28 10:00:51;;;;;;;11.38;6.28;;;13.30;99.90;;;;;;5000010;28;20265;-85
2021/10/28 10:03:30;;;;;;;10.30;6.47;;;13.50;99.90;;;;;;5015755;28;20166;-84
2021/10/28 10:06:02;;;;;;;11.85;6.38;;;13.70;99.90;;;;;;5016193;28;20908;-82
2021/10/28 10:08:32;;;;;;;10.27;6.20;;;13.80;99.90;;;;;;4999699;28;20271;-83
2021/10/28 10:11:02;;;;;;;12.17;7.20;;;13.90;99.90;;;;;;5017049;28;20226;-84
2021/10/28 10:13:29;;;;;;;9.13;6.10;;;13.80;99.90;;;;;;4985431;28;20427;-85
2021/10/28 10:16:11;;;;;;;;;;;;;;;;;;;;;
2021/10/28 10:18:40;;;;;;;6.57;4.90;;;14.00;99.90;;;;;;5018002;28;20503;-86
2021/10/28 10:21:30;;;;;;;9.00;6.00;;;14.30;99.90;;;;;;5000163;28;20525;-87
2021/10/28 10:30:01;;;;;;;9.03;5.00;;;14.60;99.90;;;;;;5000501;28;20402;-86
2021/10/28 12:20:19;;;;;;;8.97;5.97;;;16.00;99.90;;;;;;5016966;28;20995;-84
2021/10/28 12:53:34;;;;;;;8.90;5.93;;;16.00;99.90;;;;;;5017192;28;20429;-82
2021/10/28 13:48:47;;;;;;;7.70;3.90;;;15.40;99.90;;;;;;5017627;28;20436;-84
2021/10/28 13:54:49;;;;;;;5.93;3.87;;;15.40;99.90;;;;;;5008745;28;20437;-84
2021/10/28 14:18:52;;;;;;;5.10;4.20;;;15.40;99.90;;;;;;5001694;28;20405;-84
2021/10/28 14:21:15;;;;;;;5.17;3.90;;;15.30;99.90;;;;;;5023202;28;20476;-82
2021/10/28 14:27:03;;;;;;;16.97;4.50;;;15.40;99.90;;;;;;5026835;28;20436;-82
2021/10/28 14:35:04;;;;;;;9.17;4.57;;;15.30;99.90;;;;;;5012833;28;20228;-83
2021/10/28 15:29:56;;;;;;;8.87;5.57;;;14.80;99.90;;;;;;4993007;28;20416;-83
2021/10/28 15:35:18;;;;;;;6.90;4.93;;;14.70;99.90;;;;;;4990722;28;20541;-82
2021/10/28 15:40:50;;;;;;;11.43;6.80;;;14.70;99.90;;;;;;5022653;28;20431;-81
2021/10/28 15:43:29;;;;;;;8.23;5.83;;;14.60;99.90;;;;;;5018535;28;20243;-82
2021/10/28 15:51:49;;;;;;;9.77;6.57;;;14.40;99.90;;;;;;5006095;28;20906;-83
2021/10/28 16:23:27;;;;;;;13.97;7.80;;;14.20;99.90;;;;;;5010565;28;20510;-83
2021/10/28 16:25:53;;;;;;;11.33;7.17;;;14.20;99.90;;;;;;5020065;28;20427;-83
2021/10/28 16:28:18;;;;;;;12.80;8.57;;;14.20;99.90;;;;;;5020129;28;20175;-84
2021/10/28 16:30:46;;;;;;;9.60;7.00;;;14.10;99.90;;;;;;4987221;28;20212;-82
2021/10/28 16:33:13;;;;;;;14.53;7.33;;;14.10;99.90;;;;;;5002018;28;20195;-82
2021/10/28 16:35:39;;;;;;;11.90;7.60;;;14.10;99.90;;;;;;5018971;28;20788;-81
2021/10/28 16:38:07;;;;;;;12.40;8.37;;;14.10;99.90;;;;;;5024294;28;20427;-82
2021/10/28 16:40:32;;;;;;;12.70;7.43;;;14.00;99.90;;;;;;4996122;28;20431;-82
2021/10/28 16:43:03;;;;;;;14.00;8.27;;;14.00;99.90;;;;;;5030149;28;20535;-82
2021/10/28 16:45:50;;;;;;;12.00;7.50;;;14.00;99.90;;;;;;4985529;28;20215;-82
2021/10/28 16:48:20;;;;;;;10.20;7.30;;;13.90;99.90;;;;;;5009878;28;20407;-83
2021/10/28 16:50:46;;;;;;;10.48;6.90;;;13.90;99.90;;;;;;5023636;28;20422;-83
2021/10/28 16:53:12;;;;;;;12.27;7.77;;;13.90;99.90;;;;;;5011260;28;20180;-82
2021/10/28 16:55:40;;;;;;;10.80;7.27;;;13.90;99.90;;;;;;5008321;28;20466;-83
2021/10/28 16:58:07;;;;;;;17.70;7.75;;;13.80;99.90;;;;;;5005249;28;20183;-83
2021/10/28 17:00:35;;;;;;;12.48;7.90;;;13.80;99.90;;;;;;4999944;28;20179;-83
2021/10/28 17:03:02;;;;;;;12.93;8.30;;;13.80;99.90;;;;;;5016314;28;20799;-83
2021/10/28 17:05:33;;;;;;;11.82;7.53;;;13.70;99.90;;;;;;5003322;28;20222;-85
2021/10/28 17:07:59;;;;;;;15.35;7.30;;;13.70;99.90;;;;;;5013373;28;20195;-85
2021/10/28 17:10:27;;;;;;;8.47;6.77;;;13.70;99.90;;;;;;5008816;28;20205;-84
2021/10/28 17:13:02;;;;;;;11.48;7.22;;;13.70;99.90;;;;;;5007627;28;20269;-84
2021/10/28 17:15:48;;;;;;;8.30;6.32;;;13.70;99.90;;;;;;5024048;28;20190;-84
2021/10/28 17:18:14;;;;;;;12.65;7.75;;;13.60;99.90;;;;;;5016474;28;20187;-83
2021/10/28 17:20:42;;;;;;;14.43;8.00;;;13.60;99.90;;;;;;5002339;28;20537;-85
2021/10/28 17:23:32;;;;;;;13.45;8.43;;;13.50;99.90;;;;;;5000122;28;20174;-87
2021/10/28 17:26:00;;;;;;;10.02;7.70;;;13.50;99.90;;;;;;5003297;28;20652;-87
2021/10/28 17:28:26;;;;;;;11.40;7.03;;;13.40;99.90;;;;;;4986879;28;20178;-84
2021/10/28 17:30:52;;;;;;;12.10;7.20;;;13.40;99.90;;;;;;5025522;28;20166;-85
2021/10/28 17:33:19;;;;;;;7.40;6.10;;;13.40;99.90;;;;;;5010276;28;20170;-85
2021/10/28 17:35:47;;;;;;;11.25;8.27;;;13.30;99.90;;;;;;5023407;28;20185;-85
2021/10/28 17:38:25;;;;;;;12.02;8.10;;;13.30;99.90;;;;;;5022240;28;20711;-85
2021/10/28 17:40:56;;;;;;;11.75;7.25;;;13.30;99.90;;;;;;5004278;28;20185;-85
2021/10/28 17:43:31;;;;;;;9.20;6.60;;;13.20;99.90;;;;;;5022765;28;20162;-86
2021/10/28 17:45:58;;;;;;;9.73;6.60;;;13.20;99.90;;;;;;5016643;28;20178;-85
2021/10/28 17:48:28;;;;;;;9.40;6.90;;;13.20;99.90;;;;;;5000971;28;20170;-85
2021/10/28 17:50:58;;;;;;;10.70;7.32;;;13.20;99.90;;;;;;5001186;28;20170;-83
2021/10/28 17:53:26;;;;;;;10.98;7.03;;;13.20;99.90;;;;;;5020983;28;20625;-84
2021/10/28 17:56:02;;;;;;;9.80;6.80;;;13.20;99.90;;;;;;5019620;28;20265;-84
2021/10/28 17:58:27;;;;;;;10.85;7.95;;;13.20;99.90;;;;;;4989037;28;20170;-84
2021/10/28 18:00:53;;;;;;;11.70;7.70;;;13.20;99.90;;;;;;5017500;28;20177;-84
2021/10/28 18:03:21;;;;;;;15.00;7.60;;;13.10;99.90;;;;;;5000774;28;20344;-87
2021/10/28 18:05:53;;;;;;;11.32;8.20;;;13.10;99.90;;;;;;5018404;28;20423;-85
2021/10/28 18:08:18;;;;;;;10.73;7.07;;;13.00;99.90;;;;;;4984941;28;20266;-84
2021/10/28 18:10:47;;;;;;;15.17;9.80;;;13.00;99.90;;;;;;4971357;28;20222;-84
2021/10/28 18:13:19;;;;;;;10.80;7.72;;;12.90;99.90;;;;;;4989980;28;20197;-86
2021/10/28 18:15:46;;;;;;;16.95;9.50;;;12.90;99.90;;;;;;5001789;28;20166;-84
2021/10/28 18:18:32;;;;;;;11.10;8.38;;;12.90;99.90;;;;;;5020111;28;20233;-87
2021/10/28 18:21:21;;;;;;;12.70;9.20;;;12.90;99.90;;;;;;5023632;28;20578;-86
2021/10/28 18:23:57;;;;;;;12.70;7.90;;;12.90;99.90;;;;;;5004766;28;20198;-85
2021/10/28 18:26:24;;;;;;;20.13;8.95;;;12.80;99.90;;;;;;5023837;28;20172;-87
2021/10/28 18:28:52;;;;;;;11.43;8.40;;;12.80;99.90;;;;;;5014142;28;20178;-85
2021/10/28 18:31:18;;;;;;;12.95;6.75;;;12.70;99.90;;;;;;5028724;28;20285;-85
2021/10/28 18:33:44;;;;;;;14.83;8.30;;;12.70;99.90;;;;;;5023385;28;20672;-86
2021/10/28 18:36:13;;;;;;;12.75;8.50;;;12.70;99.90;;;;;;5022326;28;20413;-87
2021/10/28 18:38:45;;;;;;;13.45;7.43;;;12.70;99.90;;;;;;5006250;28;20224;-87
2021/10/28 18:41:20;;;;;;;11.60;8.10;;;12.70;99.90;;;;;;5023515;28;20178;-85
2021/10/28 18:43:48;;;;;;;14.90;8.43;;;12.70;99.90;;;;;;5007775;28;20194;-86
2021/10/28 18:46:29;;;;;;;14.85;8.23;;;12.60;99.90;;;;;;5009235;28;20184;-87
2021/10/28 18:49:00;;;;;;;9.90;7.15;;;12.60;99.90;;;;;;5028301;28;20208;-85
2021/10/28 18:51:26;;;;;;;10.48;8.00;;;12.60;99.90;;;;;;5009782;28;20174;-85
2021/10/28 18:53:52;;;;;;;14.43;8.55;;;12.60;99.90;;;;;;5004818;28;20568;-86
2021/10/28 18:56:19;;;;;;;10.80;7.82;;;12.50;99.90;;;;;;5020654;28;20170;-86
2021/10/28 18:58:58;;;;;;;12.27;8.02;;;12.50;99.90;;;;;;5021001;28;20185;-87
2021/10/28 19:01:46;;;;;;;10.73;7.28;;;12.50;99.90;;;;;;4992492;28;20564;-86
2021/10/28 19:04:12;;;;;;;13.95;7.47;;;12.50;99.90;;;;;;5003259;28;20204;-86
2021/10/28 19:06:38;;;;;;;11.33;8.07;;;12.50;99.90;;;;;;5014196;28;20553;-86
2021/10/28 19:09:21;;;;;;;11.00;7.80;;;12.50;99.90;;;;;;4985355;28;20295;-86
2021/10/28 19:11:47;;;;;;;14.98;7.40;;;12.50;99.90;;;;;;4999654;28;20471;-86
2021/10/28 19:14:16;;;;;;;14.20;7.90;;;12.40;99.90;;;;;;5003102;28;20194;-86
2021/10/28 19:16:41;;;;;;;14.07;7.75;;;12.40;99.90;;;;;;5001348;28;20654;-87
2021/10/28 19:19:17;;;;;;;11.00;6.77;;;12.40;99.90;;;;;;5001784;28;20209;-86
2021/10/28 19:21:52;;;;;;;10.10;7.18;;;12.40;99.90;;;;;;5002566;28;20205;-87
2021/10/28 19:24:25;;;;;;;11.20;7.13;;;12.40;99.90;;;;;;5005006;28;20213;-85
2021/10/28 19:26:51;;;;;;;10.77;6.55;;;12.30;99.90;;;;;;5021885;28;20174;-85
2021/10/28 19:29:20;;;;;;;10.03;6.67;;;12.30;99.90;;;;;;5003750;28;20526;-87
2021/10/28 19:34:48;;;;;;;8.30;6.72;;;12.30;99.90;;;;;;5007241;28;20205;-87
2021/10/28 19:37:28;;;;;;;11.00;6.90;;;12.20;99.90;;;;;;5002483;28;20178;-86
2021/10/28 19:40:12;;;;;;;12.18;7.47;;;12.20;99.90;;;;;;5004340;28;20272;-84
2021/10/28 19:47:41;;;;;;;9.70;6.82;;;12.10;99.90;;;;;;5025311;28;20174;-87
2021/10/28 19:50:11;;;;;;;11.97;6.83;;;12.10;99.90;;;;;;4993900;28;20185;-86
2021/10/28 19:52:38;;;;;;;9.68;5.95;;;12.00;99.90;;;;;;5027101;28;20174;-87
2021/10/28 19:55:12;;;;;;;10.82;5.95;;;12.00;99.90;;;;;;5025192;28;20301;-86
2021/10/28 19:57:41;;;;;;;8.10;5.90;;;12.00;99.90;;;;;;5025370;28;20406;-86
2021/10/28 20:05:53;;;;;;;9.27;5.47;;;11.90;99.90;;;;;;5022560;28;20239;-87
2021/10/28 20:08:23;;;;;;;8.88;5.38;;;11.80;99.90;;;;;;5006342;28;20197;-86
2021/10/28 20:21:27;;;;;;;10.93;6.18;;;11.70;99.90;;;;;;5002952;28;20245;-86
2021/10/28 20:23:58;;;;;;;6.55;4.80;;;11.70;99.90;;;;;;5021975;28;20681;-86
2021/10/28 20:26:26;;;;;;;8.13;4.50;;;11.70;99.90;;;;;;5001835;28;20221;-86
2021/10/28 20:28:58;;;;;;;8.52;5.53;;;11.70;99.90;;;;;;5002134;28;20212;-88
2021/10/28 20:31:32;;;;;;;11.05;5.53;;;11.60;99.90;;;;;;5018796;28;20188;-86
2021/10/28 20:34:14;;;;;;;8.65;5.68;;;11.70;99.90;;;;;;5019474;28;20194;-90
2021/10/28 20:39:25;;;;;;;8.73;5.88;;;11.60;99.90;;;;;;5010065;28;20657;-88
2021/10/28 20:41:53;;;;;;;11.85;7.30;;;11.70;99.90;;;;;;5015564;28;20253;-87
2021/10/28 20:44:21;;;;;;;10.65;6.30;;;11.70;99.90;;;;;;4990356;28;20205;-87
2021/10/28 20:46:57;;;;;;;13.10;6.28;;;11.70;99.90;;;;;;5001021;28;20182;-87
2021/10/28 20:49:24;;;;;;;9.00;5.90;;;11.60;99.90;;;;;;4982578;28;20178;-87
2021/10/28 20:51:56;;;;;;;14.48;6.55;;;11.70;99.90;;;;;;5000913;28;20194;-87
2021/10/28 20:54:22;;;;;;;10.18;6.20;;;11.70;99.90;;;;;;4983261;28;20301;-87
2021/10/28 20:56:55;;;;;;;11.68;7.15;;;11.60;99.90;;;;;;5008647;28;20167;-86
2021/10/28 20:59:21;;;;;;;9.52;6.13;;;11.60;99.90;;;;;;5010275;28;20170;-87
2021/10/28 21:02:05;;;;;;;9.90;7.53;;;11.60;99.90;;;;;;4993890;28;20230;-87
2021/10/28 21:04:30;;;;;;;8.98;6.30;;;11.60;99.90;;;;;;4994499;28;20489;-87
2021/10/28 21:06:58;;;;;;;13.10;6.90;;;11.50;99.90;;;;;;5012452;28;20178;-87
2021/10/28 21:09:24;;;;;;;10.10;6.57;;;11.50;99.90;;;;;;5013245;28;20163;-87
2021/10/28 21:12:00;;;;;;;11.10;7.43;;;11.50;99.90;;;;;;5012505;28;20191;-88
2021/10/28 21:14:26;;;;;;;12.90;7.82;;;11.50;99.90;;;;;;5012038;28;20214;-87
2021/10/28 21:16:53;;;;;;;13.27;8.00;;;11.50;99.90;;;;;;5012830;28;20233;-87
2021/10/28 21:19:40;;;;;;;9.85;6.60;;;11.50;99.90;;;;;;4993531;28;20202;-88
2021/10/28 21:22:08;;;;;;;18.13;7.65;;;11.50;99.90;;;;;;5010943;28;20198;-87
2021/10/28 21:24:38;;;;;;;12.88;8.32;;;11.40;99.90;;;;;;4992832;28;20198;-86
2021/10/28 21:27:07;;;;;;;13.98;7.53;;;11.50;99.90;;;;;;5022524;28;20202;-84
2021/10/28 21:29:33;;;;;;;16.63;7.50;;;11.50;99.90;;;;;;4998940;28;20189;-84
2021/10/28 21:32:04;;;;;;;12.65;7.95;;;11.50;99.90;;;;;;4981737;28;20241;-85
2021/10/28 21:34:32;;;;;;;11.00;6.95;;;11.50;99.90;;;;;;5013376;28;20213;-85
2021/10/28 21:37:25;;;;;;;13.85;7.85;;;11.50;99.90;;;;;;5014375;28;20232;-85
2021/10/28 21:39:54;;;;;;;9.23;6.93;;;11.40;99.90;;;;;;5014106;28;20202;-85
2021/10/28 21:42:23;;;;;;;11.43;7.85;;;11.50;99.90;;;;;;5015919;28;20182;-85
2021/10/28 21:44:50;;;;;;;11.02;7.07;;;11.40;99.90;;;;;;5013986;28;20198;-84
2021/10/28 21:47:18;;;;;;;10.27;6.88;;;11.40;99.90;;;;;;5031427;28;20179;-85
2021/10/28 21:49:44;;;;;;;11.85;7.93;;;11.50;99.90;;;;;;4995988;28;20174;-86
2021/10/28 21:52:26;;;;;;;13.70;8.27;;;11.50;99.90;;;;;;5036498;28;20189;-85
2021/10/28 21:58:03;;;;;;;12.10;8.02;;;11.40;99.90;;;;;;5034114;28;20154;-84